createdAt,value
2018-12-12T02:51:59.109Z,101203.92
2018-12-12T02:57:38.599Z,101207.39
2018-12-12T03:12:41.340Z,101216.69
2018-12-12T03:27:44.500Z,101238.33
2018-12-12T03:30:18.494Z,101237.84
2018-12-12T03:39:21.322Z,101237.77
2018-12-12T03:45:02.533Z,101246.03
2018-12-12T03:47:50.915Z,101245.86
2018-12-12T03:50:26.641Z,101250.37
2018-12-12T03:59:07.320Z,101259.80
2018-12-12T04:04:56.646Z,101266.21
2018-12-12T04:07:46.162Z,101263.23
2018-12-12T04:16:37.029Z,101273.30
2018-12-12T05:08:29.156Z,101308.51
2018-12-12T05:11:07.827Z,101312.28
2018-12-12T05:13:53.196Z,101311.13
2018-12-12T05:16:24.629Z,101313.08
2018-12-12T05:19:06.671Z,101315.78
2018-12-12T05:21:36.159Z,101318.36
2018-12-12T05:24:20.435Z,101328.44
2018-12-12T05:26:50.245Z,101320.91
2018-12-12T05:29:20.003Z,101321.29
2018-12-12T05:31:55.861Z,101320.33
2018-12-12T05:37:38.248Z,101326.06
2018-12-12T05:40:08.707Z,101321.75
2018-12-12T05:42:56.663Z,101324.21
2018-12-12T05:57:31.641Z,101333.71
2018-12-12T06:00:17.598Z,101335.29
2018-12-12T06:02:47.365Z,101340.56
2018-12-12T06:05:37.367Z,101342.72
2018-12-12T06:08:07.090Z,101352.90
2018-12-12T06:10:36.769Z,101357.41
2018-12-12T06:13:06.093Z,101354.17
2018-12-12T06:15:35.855Z,101363.92
2018-12-12T06:18:05.730Z,101361.99
2018-12-12T06:20:35.803Z,101364.81
2018-12-12T06:23:05.678Z,101372.81
2018-12-12T06:25:38.854Z,101369.16
2018-12-12T06:28:26.768Z,101375.47
2018-12-12T06:30:56.169Z,101376.78
2018-12-12T06:33:25.555Z,101373.20
2018-12-12T06:36:08.231Z,101375.72
2018-12-12T06:38:37.959Z,101381.45
2018-12-12T06:41:14.211Z,101391.95
2018-12-12T06:43:43.763Z,101390.88
2018-12-12T06:46:26.389Z,101395.19
2018-12-12T06:51:56.271Z,101402.41
2018-12-12T06:54:38.274Z,101400.31
2018-12-12T06:57:30.771Z,101411.04
2018-12-12T07:00:00.555Z,101416.09
2018-12-12T07:02:37.078Z,101418.56
2018-12-12T07:05:17.466Z,101418.48
2018-12-12T07:11:05.874Z,101427.09
2018-12-12T07:19:52.917Z,101441.48
2018-12-12T07:22:38.792Z,101433.42
2018-12-12T07:25:08.894Z,101442.91
2018-12-12T07:27:38.604Z,101450.96
2018-12-12T07:30:09.096Z,101454.84
2018-12-12T07:32:40.294Z,101459.19
2018-12-12T07:35:10.034Z,101463.11
2018-12-12T07:37:39.970Z,101466.64
2018-12-12T07:40:09.925Z,101466.23
2018-12-12T07:42:39.281Z,101470.11
2018-12-12T07:45:09.106Z,101474.95
2018-12-12T07:47:38.509Z,101480.09
2018-12-12T07:50:08.663Z,101482.71
2018-12-12T07:52:38.435Z,101489.72
2018-12-12T07:55:08.309Z,101494.56
2018-12-12T07:57:38.053Z,101495.50
2018-12-12T08:00:08.590Z,101502.08
2018-12-12T08:02:38.324Z,101507.68
2018-12-12T08:05:08.380Z,101509.92
2018-12-12T08:07:38.140Z,101511.42
2018-12-12T08:10:08.070Z,101509.98
2018-12-12T08:12:37.776Z,101515.13
2018-12-12T08:15:07.396Z,101514.82
2018-12-12T08:17:37.172Z,101517.44
2018-12-12T08:20:06.668Z,101517.78
2018-12-12T08:22:36.502Z,101518.98
2018-12-12T08:25:06.754Z,101522.57
2018-12-12T08:27:37.458Z,101534.11
2018-12-12T08:30:07.872Z,101528.41
2018-12-12T08:32:37.659Z,101529.29
2018-12-12T08:35:07.658Z,101540.12
2018-12-12T08:37:37.434Z,101536.24
2018-12-12T08:40:08.884Z,101548.20
2018-12-12T08:42:38.657Z,101552.63
2018-12-12T08:45:08.574Z,101548.40
2018-12-12T08:47:38.006Z,101551.28
2018-12-12T08:50:09.701Z,101550.97
2018-12-12T08:52:39.162Z,101551.59
2018-12-12T08:55:09.153Z,101557.44
2018-12-12T08:57:38.958Z,101564.52
2018-12-12T09:00:09.153Z,101565.09
2018-12-12T09:02:38.720Z,101560.03
2018-12-12T09:05:08.120Z,101565.75
2018-12-12T09:07:37.916Z,101561.27
2018-12-12T09:10:07.332Z,101566.42
2018-12-12T09:12:37.155Z,101568.56
2018-12-12T09:15:07.448Z,101571.55
2018-12-12T09:17:37.278Z,101570.91
2018-12-12T09:20:07.605Z,101566.98
2018-12-12T09:22:37.025Z,101568.63
2018-12-12T09:25:07.918Z,101575.68
2018-12-12T09:27:37.342Z,101568.38
2018-12-12T09:30:07.654Z,101570.47
2018-12-12T09:32:37.050Z,101570.47
2018-12-12T09:35:07.062Z,101571.06
2018-12-12T09:37:36.765Z,101574.95
2018-12-12T09:40:06.989Z,101576.30
2018-12-12T09:42:36.370Z,101580.60
2018-12-12T09:45:06.351Z,101582.43
2018-12-12T09:47:35.847Z,101586.22
2018-12-12T09:50:06.363Z,101586.30
2018-12-12T09:52:36.101Z,101586.58
2018-12-12T09:55:05.975Z,101599.98
2018-12-12T09:57:35.741Z,101596.67
2018-12-12T10:00:05.553Z,101595.11
2018-12-12T10:02:54.025Z,101601.82
2018-12-12T10:05:26.825Z,101604.86
2018-12-12T10:08:04.569Z,101597.62
2018-12-12T10:10:39.843Z,101596.95
2018-12-12T10:13:24.588Z,101597.31
2018-12-12T10:19:11.684Z,101605.71
2018-12-12T10:21:49.457Z,101603.77
2018-12-12T10:24:29.389Z,101602.73
2018-12-12T10:26:59.714Z,101602.91
2018-12-12T10:32:36.252Z,101596.58
2018-12-12T10:35:08.321Z,101602.75
2018-12-12T10:37:38.240Z,101608.58
2018-12-12T10:40:09.738Z,101603.55
2018-12-12T10:42:39.644Z,101607.19
2018-12-12T10:45:10.032Z,101601.16
2018-12-12T10:47:39.902Z,101602.52
2018-12-12T10:50:11.174Z,101600.47
2018-12-12T10:52:40.597Z,101600.28
2018-12-12T10:55:10.381Z,101604.17
2018-12-12T10:57:39.888Z,101604.09
2018-12-12T11:00:12.895Z,101602.03
2018-12-12T11:05:46.997Z,101611.84
2018-12-12T11:08:20.343Z,101611.30
2018-12-12T11:10:53.506Z,101613.88
2018-12-12T11:13:33.108Z,101609.11
2018-12-12T11:16:15.088Z,101608.62
2018-12-12T11:18:44.580Z,101608.87
2018-12-12T11:21:40.617Z,101605.70
2018-12-12T11:24:22.301Z,101598.83
2018-12-12T11:26:52.918Z,101598.12
2018-12-12T11:29:28.144Z,101597.16
2018-12-12T11:32:01.715Z,101604.23
2018-12-12T11:34:34.728Z,101606.30
2018-12-12T11:40:22.080Z,101604.61
2018-12-12T11:42:54.628Z,101605.23
2018-12-12T11:48:19.096Z,101598.27
2018-12-12T11:50:49.500Z,101595.58
2018-12-12T11:53:19.907Z,101594.04
2018-12-12T11:55:49.747Z,101598.63
2018-12-12T11:58:19.526Z,101598.58
2018-12-12T12:00:49.343Z,101608.78
2018-12-12T12:03:19.263Z,101615.57
2018-12-12T12:05:49.085Z,101613.86
2018-12-12T12:08:18.900Z,101617.84
2018-12-12T12:10:48.789Z,101615.27
2018-12-12T12:13:18.598Z,101608.53
2018-12-12T12:15:49.144Z,101609.77
2018-12-12T12:18:18.942Z,101611.84
2018-12-12T12:20:48.396Z,101616.42
2018-12-12T12:23:18.259Z,101626.45
2018-12-12T12:25:47.721Z,101631.61
2018-12-12T12:28:17.117Z,101625.21
2018-12-12T12:30:46.909Z,101623.73
2018-12-12T12:33:16.655Z,101623.25
2018-12-12T12:35:46.770Z,101624.27
2018-12-12T12:38:16.843Z,101622.13
2018-12-12T12:40:46.696Z,101620.50
2018-12-12T12:43:16.130Z,101623.45
2018-12-12T12:45:45.972Z,101621.27
2018-12-12T12:48:15.792Z,101615.75
2018-12-12T12:50:46.053Z,101612.77
2018-12-12T12:53:16.181Z,101606.41
2018-12-12T12:55:46.537Z,101617.83
2018-12-12T12:58:16.361Z,101619.30
2018-12-12T13:00:46.863Z,101621.33
2018-12-12T13:03:16.858Z,101618.33
2018-12-12T13:05:46.607Z,101623.98
2018-12-12T13:08:16.353Z,101617.86
2018-12-12T13:10:46.054Z,101621.62
2018-12-12T13:13:16.654Z,101622.34
2018-12-12T13:15:46.522Z,101621.29
2018-12-12T13:18:17.253Z,101621.24
2018-12-12T13:20:46.587Z,101618.16
2018-12-12T13:23:16.487Z,101620.47
2018-12-12T13:25:45.964Z,101624.45
2018-12-12T13:28:15.939Z,101617.70
2018-12-12T13:30:45.708Z,101621.58
2018-12-12T13:33:15.104Z,101625.29
2018-12-12T13:35:44.440Z,101630.91
2018-12-12T13:38:14.244Z,101625.39
2018-12-12T13:40:44.048Z,101633.48
2018-12-12T13:43:13.810Z,101634.37
2018-12-12T13:45:44.989Z,101638.98
2018-12-12T13:48:14.778Z,101637.25
2018-12-12T13:53:51.568Z,101651.98
2018-12-12T14:02:24.734Z,101658.21
2018-12-12T14:04:55.064Z,101661.13
2018-12-12T14:07:24.782Z,101659.66
2018-12-12T14:09:54.756Z,101658.34
2018-12-12T14:12:24.440Z,101657.16
2018-12-12T14:14:54.161Z,101668.02
2018-12-12T14:17:24.164Z,101676.75
2018-12-12T14:19:53.945Z,101669.28
2018-12-12T14:22:23.680Z,101667.13
2018-12-12T14:24:53.428Z,101670.09
2018-12-12T14:27:23.205Z,101671.73
2018-12-12T14:29:52.967Z,101679.48
2018-12-12T14:32:23.164Z,101675.44
2018-12-12T14:34:53.498Z,101685.80
2018-12-12T14:37:23.216Z,101683.02
2018-12-12T14:39:52.656Z,101678.12
2018-12-12T14:54:56.090Z,101677.98
2018-12-12T15:02:17.210Z,101678.00
2018-12-12T15:05:00.723Z,101681.16
2018-12-12T15:10:55.673Z,101687.11
2018-12-12T15:13:35.258Z,101696.28
2018-12-12T15:16:14.645Z,101699.14
2018-12-12T15:24:56.907Z,101702.31
2018-12-12T15:27:30.771Z,101697.59
2018-12-12T15:30:06.509Z,101711.23
2018-12-12T15:32:38.562Z,101709.19
2018-12-12T15:35:17.169Z,101717.53
2018-12-12T15:43:19.583Z,101740.91
2018-12-12T15:45:54.446Z,101736.53
2018-12-12T15:48:27.840Z,101740.50
2018-12-12T15:51:06.934Z,101744.44
2018-12-12T15:53:55.481Z,101736.33
2018-12-12T15:56:40.553Z,101733.52
2018-12-12T15:59:17.983Z,101738.50
2018-12-12T16:01:59.859Z,101736.86
2018-12-12T16:04:35.323Z,101741.57
2018-12-12T16:09:54.791Z,101741.66
2018-12-12T16:12:27.771Z,101739.17
2018-12-12T16:15:32.531Z,101744.23
2018-12-12T16:18:16.715Z,101739.88
2018-12-12T16:21:09.725Z,101737.01
2018-12-12T16:23:50.027Z,101734.55
2018-12-12T16:26:33.856Z,101743.47
2018-12-12T16:29:15.313Z,101746.81
2018-12-12T16:38:01.606Z,101741.20
2018-12-12T16:40:52.765Z,101743.80
2018-12-12T16:43:26.135Z,101753.23
2018-12-12T16:46:04.014Z,101749.67
2018-12-12T16:48:41.427Z,101753.88
2018-12-12T16:51:14.186Z,101752.83
2018-12-12T16:53:51.133Z,101746.76
2018-12-12T16:56:22.437Z,101749.91
2018-12-12T16:59:04.118Z,101756.00
2018-12-12T17:01:42.899Z,101757.94
2018-12-12T17:04:16.839Z,101758.28
2018-12-12T17:09:45.814Z,101758.76
2018-12-12T17:12:15.608Z,101767.05
2018-12-12T17:17:44.953Z,101771.16
2018-12-12T17:20:21.226Z,101774.12
2018-12-12T17:22:51.307Z,101768.49
2018-12-12T17:25:21.441Z,101774.00
2018-12-12T17:31:09.444Z,101769.42
2018-12-12T17:33:45.673Z,101772.95
2018-12-12T17:36:26.379Z,101773.97
2018-12-12T17:38:56.489Z,101775.63
2018-12-12T17:41:26.587Z,101776.62
2018-12-12T17:43:56.747Z,101772.63
2018-12-12T17:46:27.209Z,101783.69
2018-12-12T17:48:56.627Z,101772.75
2018-12-12T17:51:26.386Z,101780.38
2018-12-12T17:53:56.303Z,101781.78
2018-12-12T17:56:27.080Z,101785.72
2018-12-12T18:02:10.518Z,101785.14
2018-12-12T18:04:42.260Z,101787.74
2018-12-12T18:07:33.791Z,101790.62
2018-12-12T18:10:07.875Z,101794.08
2018-12-12T18:12:37.847Z,101791.67
2018-12-12T18:15:07.266Z,101798.64
2018-12-12T18:17:37.036Z,101800.20
2018-12-12T18:20:06.678Z,101802.14
2018-12-12T18:22:36.428Z,101796.88
2018-12-12T18:25:33.717Z,101793.13
2018-12-12T18:28:03.218Z,101793.20
2018-12-12T18:30:33.086Z,101789.81
2018-12-12T18:33:02.507Z,101796.69
2018-12-12T18:35:32.385Z,101797.77
2018-12-12T18:38:01.830Z,101802.87
2018-12-12T18:40:53.626Z,101796.23
2018-12-12T18:43:23.405Z,101797.53
2018-12-12T18:45:52.918Z,101799.87
2018-12-12T18:48:22.441Z,101796.30
2018-12-12T18:51:11.118Z,101801.72
2018-12-12T18:53:41.750Z,101809.30
2018-12-12T18:56:12.466Z,101807.11
2018-12-12T18:58:41.929Z,101809.30
2018-12-12T19:01:18.565Z,101802.46
2018-12-12T19:03:48.703Z,101805.81
2018-12-12T19:09:18.514Z,101812.71
2018-12-12T19:11:48.078Z,101818.65
2018-12-12T19:14:17.822Z,101822.21
2018-12-12T19:16:48.433Z,101821.81
2018-12-12T19:40:56.530Z,101828.53
2018-12-12T19:43:26.945Z,101827.81
2018-12-12T19:46:13.237Z,101822.61
2018-12-12T19:57:50.813Z,101812.32
2018-12-12T20:00:34.541Z,101812.39
